sensor_id;sensor_type;location;lat;lon;timestamp;temperature;humidity
25320;DHT22;13256;49.012;8.610;2023-08-24T00:01:56;19.80;99.90
25320;DHT22;13256;49.012;8.610;2023-08-24T00:04:23;19.90;99.90
25320;DHT22;13256;49.012;8.610;2023-08-24T00:06:50;19.90;99.90
25320;DHT22;13256;49.012;8.610;2023-08-24T00:09:19;19.90;99.90
25320;DHT22;13256;49.012;8.610;2023-08-24T00:11:46;19.80;99.90
25320;DHT22;13256;49.012;8.610;2023-08-24T00:14:13;19.80;99.90
25320;DHT22;13256;49.012;8.610;2023-08-24T00:16:40;19.70;99.90
25320;DHT22;13256;49.012;8.610;2023-08-24T00:19:08;19.70;99.90
25320;DHT22;13256;49.012;8.610;2023-08-24T00:21:39;19.60;99.90
25320;DHT22;13256;49.012;8.610;2023-08-24T00:24:05;19.50;99.90
25320;DHT22;13256;49.012;8.610;2023-08-24T00:26:32;19.50;99.90
25320;DHT22;13256;49.012;8.610;2023-08-24T00:28:59;19.40;99.90
25320;DHT22;13256;49.012;8.610;2023-08-24T00:31:29;19.40;99.90
25320;DHT22;13256;49.012;8.610;2023-08-24T00:33:57;19.30;99.90
25320;DHT22;13256;49.012;8.610;2023-08-24T00:36:30;19.20;99.90
25320;DHT22;13256;49.012;8.610;2023-08-24T00:38:57;19.20;99.90
25320;DHT22;13256;49.012;8.610;2023-08-24T00:41:28;19.20;99.90
25320;DHT22;13256;49.012;8.610;2023-08-24T00:43:57;19.20;99.90
25320;DHT22;13256;49.012;8.610;2023-08-24T00:46:25;19.30;99.90
25320;DHT22;13256;49.012;8.610;2023-08-24T00:48:56;19.40;99.90
25320;DHT22;13256;49.012;8.610;2023-08-24T00:51:25;19.40;99.90
25320;DHT22;13256;49.012;8.610;2023-08-24T00:53:53;19.40;99.90
25320;DHT22;13256;49.012;8.610;2023-08-24T00:56:23;19.30;99.90
25320;DHT22;13256;49.012;8.610;2023-08-24T00:59:02;19.30;99.90
25320;DHT22;13256;49.012;8.610;2023-08-24T01:01:29;19.40;99.90
25320;DHT22;13256;49.012;8.610;2023-08-24T01:03:58;19.40;99.90
25320;DHT22;13256;49.012;8.610;2023-08-24T01:06:24;19.50;99.90
25320;DHT22;13256;49.012;8.610;2023-08-24T01:08:52;19.50;99.90
25320;DHT22;13256;49.012;8.610;2023-08-24T01:12:25;19.60;99.90
25320;DHT22;13256;49.012;8.610;2023-08-24T01:17:18;19.80;99.90
25320;DHT22;13256;49.012;8.610;2023-08-24T01:19:54;19.80;99.90
25320;DHT22;13256;49.012;8.610;2023-08-24T01:25:11;19.90;99.90
25320;DHT22;13256;49.012;8.610;2023-08-24T01:28:08;19.90;99.90
25320;DHT22;13256;49.012;8.610;2023-08-24T01:30:37;20.00;99.90
25320;DHT22;13256;49.012;8.610;2023-08-24T01:33:06;20.00;99.90
25320;DHT22;13256;49.012;8.610;2023-08-24T01:36:08;20.00;99.90
25320;DHT22;13256;49.012;8.610;2023-08-24T01:38:38;20.00;99.90
25320;DHT22;13256;49.012;8.610;2023-08-24T01:43:59;19.80;99.90
25320;DHT22;13256;49.012;8.610;2023-08-24T01:46:58;19.70;99.90
25320;DHT22;13256;49.012;8.610;2023-08-24T01:49:30;19.60;99.90
25320;DHT22;13256;49.012;8.610;2023-08-24T01:51:59;19.50;99.90
25320;DHT22;13256;49.012;8.610;2023-08-24T01:54:27;19.50;99.90
25320;DHT22;13256;49.012;8.610;2023-08-24T01:56:55;19.40;99.90
25320;DHT22;13256;49.012;8.610;2023-08-24T01:59:23;19.40;99.90
25320;DHT22;13256;49.012;8.610;2023-08-24T02:01:49;19.30;99.90
25320;DHT22;13256;49.012;8.610;2023-08-24T02:04:20;19.30;99.90
25320;DHT22;13256;49.012;8.610;2023-08-24T02:06:50;19.30;99.90
25320;DHT22;13256;49.012;8.610;2023-08-24T02:09:18;19.30;99.90
25320;DHT22;13256;49.012;8.610;2023-08-24T02:11:44;19.40;99.90
25320;DHT22;13256;49.012;8.610;2023-08-24T02:14:14;19.30;99.90
25320;DHT22;13256;49.012;8.610;2023-08-24T02:16:43;19.30;99.90
25320;DHT22;13256;49.012;8.610;2023-08-24T02:19:11;19.30;99.90
25320;DHT22;13256;49.012;8.610;2023-08-24T02:21:39;19.30;99.90
25320;DHT22;13256;49.012;8.610;2023-08-24T02:24:07;19.30;99.90
25320;DHT22;13256;49.012;8.610;2023-08-24T02:26:33;19.30;99.90
25320;DHT22;13256;49.012;8.610;2023-08-24T02:29:09;19.30;99.90
25320;DHT22;13256;49.012;8.610;2023-08-24T02:31:39;19.30;99.90
25320;DHT22;13256;49.012;8.610;2023-08-24T02:34:10;19.40;99.90
25320;DHT22;13256;49.012;8.610;2023-08-24T02:36:40;19.40;99.90
25320;DHT22;13256;49.012;8.610;2023-08-24T02:39:37;19.50;99.90
25320;DHT22;13256;49.012;8.610;2023-08-24T02:42:14;19.50;99.90
25320;DHT22;13256;49.012;8.610;2023-08-24T02:44:44;19.60;99.90
25320;DHT22;13256;49.012;8.610;2023-08-24T02:47:16;19.60;99.90
25320;DHT22;13256;49.012;8.610;2023-08-24T02:49:46;19.70;99.90
25320;DHT22;13256;49.012;8.610;2023-08-24T02:52:13;19.70;99.90
25320;DHT22;13256;49.012;8.610;2023-08-24T02:54:43;19.70;99.90
25320;DHT22;13256;49.012;8.610;2023-08-24T02:57:10;19.70;99.90
25320;DHT22;13256;49.012;8.610;2023-08-24T02:59:41;19.70;99.90
25320;DHT22;13256;49.012;8.610;2023-08-24T03:02:10;19.70;99.90
25320;DHT22;13256;49.012;8.610;2023-08-24T03:04:37;19.60;99.90
25320;DHT22;13256;49.012;8.610;2023-08-24T03:07:08;19.50;99.90
25320;DHT22;13256;49.012;8.610;2023-08-24T03:09:40;19.50;99.90
25320;DHT22;13256;49.012;8.610;2023-08-24T03:12:07;19.40;99.90
25320;DHT22;13256;49.012;8.610;2023-08-24T03:15:03;19.30;99.90
25320;DHT22;13256;49.012;8.610;2023-08-24T03:17:30;19.30;99.90
25320;DHT22;13256;49.012;8.610;2023-08-24T03:20:00;19.30;99.90
25320;DHT22;13256;49.012;8.610;2023-08-24T03:22:28;19.30;99.90
25320;DHT22;13256;49.012;8.610;2023-08-24T03:24:59;19.40;99.90
25320;DHT22;13256;49.012;8.610;2023-08-24T03:27:27;19.40;99.90
25320;DHT22;13256;49.012;8.610;2023-08-24T03:29:56;19.50;99.90
25320;DHT22;13256;49.012;8.610;2023-08-24T03:32:27;19.50;99.90
25320;DHT22;13256;49.012;8.610;2023-08-24T03:35:01;19.60;99.90
25320;DHT22;13256;49.012;8.610;2023-08-24T03:37:30;19.60;99.90
25320;DHT22;13256;49.012;8.610;2023-08-24T03:40:00;19.60;99.90
25320;DHT22;13256;49.012;8.610;2023-08-24T03:42:30;19.60;99.90
25320;DHT22;13256;49.012;8.610;2023-08-24T03:44:59;19.60;99.90
25320;DHT22;13256;49.012;8.610;2023-08-24T03:47:30;19.70;99.90
25320;DHT22;13256;49.012;8.610;2023-08-24T03:49:57;19.70;99.90
25320;DHT22;13256;49.012;8.610;2023-08-24T03:52:23;19.80;99.90
25320;DHT22;13256;49.012;8.610;2023-08-24T03:54:56;19.70;99.90
25320;DHT22;13256;49.012;8.610;2023-08-24T03:57:47;19.80;99.90
25320;DHT22;13256;49.012;8.610;2023-08-24T04:00:16;19.80;99.90
25320;DHT22;13256;49.012;8.610;2023-08-24T04:02:49;19.80;99.90
25320;DHT22;13256;49.012;8.610;2023-08-24T04:05:24;19.80;99.90
25320;DHT22;13256;49.012;8.610;2023-08-24T04:07:55;19.80;99.90
25320;DHT22;13256;49.012;8.610;2023-08-24T04:10:26;19.80;99.90
25320;DHT22;13256;49.012;8.610;2023-08-24T04:12:54;19.80;99.90
25320;DHT22;13256;49.012;8.610;2023-08-24T04:15:21;19.90;99.90
25320;DHT22;13256;49.012;8.610;2023-08-24T04:17:51;19.90;99.90
25320;DHT22;13256;49.012;8.610;2023-08-24T04:20:22;19.80;99.90
25320;DHT22;13256;49.012;8.610;2023-08-24T04:22:48;19.90;99.90
25320;DHT22;13256;49.012;8.610;2023-08-24T04:25:15;19.90;99.90
25320;DHT22;13256;49.012;8.610;2023-08-24T04:27:45;19.90;99.90
25320;DHT22;13256;49.012;8.610;2023-08-24T04:30:18;19.90;99.90
25320;DHT22;13256;49.012;8.610;2023-08-24T04:32:48;19.90;99.90
25320;DHT22;13256;49.012;8.610;2023-08-24T04:35:41;19.90;99.90
25320;DHT22;13256;49.012;8.610;2023-08-24T04:38:09;19.90;99.90
25320;DHT22;13256;49.012;8.610;2023-08-24T04:43:24;19.90;99.90
25320;DHT22;13256;49.012;8.610;2023-08-24T04:45:53;19.90;99.90
25320;DHT22;13256;49.012;8.610;2023-08-24T04:48:25;19.90;99.90
25320;DHT22;13256;49.012;8.610;2023-08-24T04:51:01;19.90;99.90
25320;DHT22;13256;49.012;8.610;2023-08-24T04:53:29;19.90;99.90
25320;DHT22;13256;49.012;8.610;2023-08-24T04:56:00;19.90;99.90
25320;DHT22;13256;49.012;8.610;2023-08-24T04:58:29;20.00;99.90
25320;DHT22;13256;49.012;8.610;2023-08-24T05:01:40;20.00;99.90
25320;DHT22;13256;49.012;8.610;2023-08-24T05:04:07;20.00;99.90
25320;DHT22;13256;49.012;8.610;2023-08-24T05:06:37;20.00;99.90
25320;DHT22;13256;49.012;8.610;2023-08-24T05:09:06;20.00;99.90
25320;DHT22;13256;49.012;8.610;2023-08-24T05:11:33;20.00;99.90
25320;DHT22;13256;49.012;8.610;2023-08-24T05:14:01;20.00;99.90
25320;DHT22;13256;49.012;8.610;2023-08-24T05:16:27;20.10;99.90
25320;DHT22;13256;49.012;8.610;2023-08-24T05:18:58;20.10;99.90
25320;DHT22;13256;49.012;8.610;2023-08-24T05:21:27;20.10;99.90
25320;DHT22;13256;49.012;8.610;2023-08-24T05:23:56;20.20;99.90
25320;DHT22;13256;49.012;8.610;2023-08-24T05:26:23;20.20;99.90
25320;DHT22;13256;49.012;8.610;2023-08-24T05:28:53;20.30;99.90
25320;DHT22;13256;49.012;8.610;2023-08-24T05:31:26;20.30;99.90
25320;DHT22;13256;49.012;8.610;2023-08-24T05:33:55;20.50;99.90
25320;DHT22;13256;49.012;8.610;2023-08-24T05:36:22;20.50;99.90
25320;DHT22;13256;49.012;8.610;2023-08-24T05:38:48;20.60;99.90
25320;DHT22;13256;49.012;8.610;2023-08-24T05:41:21;20.70;99.90
25320;DHT22;13256;49.012;8.610;2023-08-24T05:43:55;20.80;99.90
25320;DHT22;13256;49.012;8.610;2023-08-24T05:46:23;20.80;99.90
25320;DHT22;13256;49.012;8.610;2023-08-24T05:48:50;20.90;99.90
25320;DHT22;13256;49.012;8.610;2023-08-24T05:51:17;20.90;99.90
25320;DHT22;13256;49.012;8.610;2023-08-24T05:53:47;21.00;99.90
25320;DHT22;13256;49.012;8.610;2023-08-24T05:56:14;21.00;99.90
25320;DHT22;13256;49.012;8.610;2023-08-24T05:58:41;21.00;99.90
25320;DHT22;13256;49.012;8.610;2023-08-24T06:01:08;21.00;99.90
25320;DHT22;13256;49.012;8.610;2023-08-24T06:03:34;21.00;99.90
25320;DHT22;13256;49.012;8.610;2023-08-24T06:06:02;21.10;99.90
25320;DHT22;13256;49.012;8.610;2023-08-24T06:08:35;21.10;99.90
25320;DHT22;13256;49.012;8.610;2023-08-24T06:11:02;21.10;99.90
25320;DHT22;13256;49.012;8.610;2023-08-24T06:13:29;21.10;99.90
25320;DHT22;13256;49.012;8.610;2023-08-24T06:15:58;21.20;99.90
25320;DHT22;13256;49.012;8.610;2023-08-24T06:18:25;21.20;99.90
25320;DHT22;13256;49.012;8.610;2023-08-24T06:20:57;21.20;99.90
25320;DHT22;13256;49.012;8.610;2023-08-24T06:23:28;21.20;99.90
25320;DHT22;13256;49.012;8.610;2023-08-24T06:25:56;21.20;99.90
25320;DHT22;13256;49.012;8.610;2023-08-24T06:28:23;21.20;99.90
25320;DHT22;13256;49.012;8.610;2023-08-24T06:30:49;21.20;99.90
25320;DHT22;13256;49.012;8.610;2023-08-24T06:33:17;21.20;99.90
25320;DHT22;13256;49.012;8.610;2023-08-24T06:35:45;21.20;99.90
25320;DHT22;13256;49.012;8.610;2023-08-24T06:38:13;21.20;99.90
25320;DHT22;13256;49.012;8.610;2023-08-24T06:40:42;21.30;99.90
25320;DHT22;13256;49.012;8.610;2023-08-24T06:43:10;21.30;99.90
25320;DHT22;13256;49.012;8.610;2023-08-24T06:45:40;21.40;99.90
25320;DHT22;13256;49.012;8.610;2023-08-24T06:48:13;21.30;99.90
25320;DHT22;13256;49.012;8.610;2023-08-24T06:50:42;21.30;99.90
25320;DHT22;13256;49.012;8.610;2023-08-24T06:53:12;21.40;99.90
25320;DHT22;13256;49.012;8.610;2023-08-24T06:55:38;21.40;99.90
25320;DHT22;13256;49.012;8.610;2023-08-24T06:58:06;21.40;99.90
25320;DHT22;13256;49.012;8.610;2023-08-24T07:00:35;21.50;99.90
25320;DHT22;13256;49.012;8.610;2023-08-24T07:03:02;21.50;99.90
25320;DHT22;13256;49.012;8.610;2023-08-24T07:05:32;21.50;99.90
25320;DHT22;13256;49.012;8.610;2023-08-24T07:08:01;21.50;99.90
25320;DHT22;13256;49.012;8.610;2023-08-24T07:10:30;21.60;99.90
25320;DHT22;13256;49.012;8.610;2023-08-24T07:12:59;21.60;99.90
25320;DHT22;13256;49.012;8.610;2023-08-24T07:15:31;21.60;99.90
25320;DHT22;13256;49.012;8.610;2023-08-24T07:18:04;21.70;99.90
25320;DHT22;13256;49.012;8.610;2023-08-24T07:20:33;21.70;99.90
25320;DHT22;13256;49.012;8.610;2023-08-24T07:23:03;21.80;99.90
25320;DHT22;13256;49.012;8.610;2023-08-24T07:26:01;21.90;99.90
25320;DHT22;13256;49.012;8.610;2023-08-24T07:28:28;22.10;99.90
25320;DHT22;13256;49.012;8.610;2023-08-24T07:30:55;22.10;99.90
25320;DHT22;13256;49.012;8.610;2023-08-24T07:33:28;22.20;99.90
25320;DHT22;13256;49.012;8.610;2023-08-24T07:35:56;22.30;99.90
25320;DHT22;13256;49.012;8.610;2023-08-24T07:38:26;22.40;99.90
25320;DHT22;13256;49.012;8.610;2023-08-24T07:40:57;22.50;99.90
25320;DHT22;13256;49.012;8.610;2023-08-24T07:43:27;22.70;99.90
25320;DHT22;13256;49.012;8.610;2023-08-24T07:45:57;22.80;99.90
25320;DHT22;13256;49.012;8.610;2023-08-24T07:48:25;23.00;99.90
25320;DHT22;13256;49.012;8.610;2023-08-24T07:50:51;23.10;99.90
25320;DHT22;13256;49.012;8.610;2023-08-24T07:53:19;23.30;99.90
25320;DHT22;13256;49.012;8.610;2023-08-24T07:55:47;23.40;99.90
25320;DHT22;13256;49.012;8.610;2023-08-24T07:58:14;23.50;99.90
25320;DHT22;13256;49.012;8.610;2023-08-24T08:00:41;23.70;99.90
25320;DHT22;13256;49.012;8.610;2023-08-24T08:03:08;23.90;99.90
25320;DHT22;13256;49.012;8.610;2023-08-24T08:05:35;24.00;99.90
25320;DHT22;13256;49.012;8.610;2023-08-24T08:08:02;24.20;99.90
25320;DHT22;13256;49.012;8.610;2023-08-24T08:10:31;24.40;99.90
25320;DHT22;13256;49.012;8.610;2023-08-24T08:12:59;24.50;99.90
25320;DHT22;13256;49.012;8.610;2023-08-24T08:15:29;24.50;99.90
25320;DHT22;13256;49.012;8.610;2023-08-24T08:17:56;24.60;99.90
25320;DHT22;13256;49.012;8.610;2023-08-24T08:20:23;24.60;99.90
25320;DHT22;13256;49.012;8.610;2023-08-24T08:22:50;24.80;99.90
25320;DHT22;13256;49.012;8.610;2023-08-24T08:25:20;25.00;99.90
25320;DHT22;13256;49.012;8.610;2023-08-24T08:27:51;25.20;99.90
25320;DHT22;13256;49.012;8.610;2023-08-24T08:30:19;25.30;99.90
25320;DHT22;13256;49.012;8.610;2023-08-24T08:32:46;25.30;99.90
25320;DHT22;13256;49.012;8.610;2023-08-24T08:35:17;25.50;99.90
25320;DHT22;13256;49.012;8.610;2023-08-24T08:37:45;25.70;99.90
25320;DHT22;13256;49.012;8.610;2023-08-24T08:40:17;25.90;99.90
25320;DHT22;13256;49.012;8.610;2023-08-24T08:42:47;26.10;99.90
25320;DHT22;13256;49.012;8.610;2023-08-24T08:45:19;26.30;99.90
25320;DHT22;13256;49.012;8.610;2023-08-24T08:47:57;26.50;99.90
25320;DHT22;13256;49.012;8.610;2023-08-24T08:50:25;26.60;99.90
25320;DHT22;13256;49.012;8.610;2023-08-24T08:52:52;26.80;99.90
25320;DHT22;13256;49.012;8.610;2023-08-24T08:55:19;26.90;99.90
25320;DHT22;13256;49.012;8.610;2023-08-24T08:57:48;27.00;99.90
25320;DHT22;13256;49.012;8.610;2023-08-24T09:00:18;27.10;99.90
25320;DHT22;13256;49.012;8.610;2023-08-24T09:02:46;27.10;99.90
25320;DHT22;13256;49.012;8.610;2023-08-24T09:05:24;27.30;99.90
25320;DHT22;13256;49.012;8.610;2023-08-24T09:07:54;27.40;99.90
25320;DHT22;13256;49.012;8.610;2023-08-24T09:10:26;27.50;99.90
25320;DHT22;13256;49.012;8.610;2023-08-24T09:12:59;27.70;99.90
25320;DHT22;13256;49.012;8.610;2023-08-24T09:15:35;27.90;99.90
25320;DHT22;13256;49.012;8.610;2023-08-24T09:18:10;28.00;99.90
25320;DHT22;13256;49.012;8.610;2023-08-24T09:20:42;28.00;99.90
25320;DHT22;13256;49.012;8.610;2023-08-24T09:23:19;28.10;99.90
25320;DHT22;13256;49.012;8.610;2023-08-24T09:25:52;28.30;99.90
25320;DHT22;13256;49.012;8.610;2023-08-24T09:28:31;28.40;99.90
25320;DHT22;13256;49.012;8.610;2023-08-24T09:31:01;28.50;99.90
25320;DHT22;13256;49.012;8.610;2023-08-24T09:33:40;28.60;99.90
25320;DHT22;13256;49.012;8.610;2023-08-24T09:36:17;28.80;99.90
25320;DHT22;13256;49.012;8.610;2023-08-24T09:38:55;29.00;99.90
25320;DHT22;13256;49.012;8.610;2023-08-24T09:41:50;29.10;99.90
25320;DHT22;13256;49.012;8.610;2023-08-24T09:44:24;29.10;99.90
25320;DHT22;13256;49.012;8.610;2023-08-24T09:46:52;29.10;99.90
25320;DHT22;13256;49.012;8.610;2023-08-24T09:49:22;29.20;99.90
25320;DHT22;13256;49.012;8.610;2023-08-24T09:51:52;29.30;99.90
25320;DHT22;13256;49.012;8.610;2023-08-24T09:54:37;29.30;99.90
25320;DHT22;13256;49.012;8.610;2023-08-24T09:57:07;29.30;99.90
25320;DHT22;13256;49.012;8.610;2023-08-24T09:59:39;29.40;99.90
25320;DHT22;13256;49.012;8.610;2023-08-24T10:02:20;29.40;99.90
25320;DHT22;13256;49.012;8.610;2023-08-24T10:04:52;29.70;99.90
25320;DHT22;13256;49.012;8.610;2023-08-24T10:07:26;29.80;99.90
25320;DHT22;13256;49.012;8.610;2023-08-24T10:10:19;29.90;99.90
25320;DHT22;13256;49.012;8.610;2023-08-24T10:12:50;30.20;99.90
25320;DHT22;13256;49.012;8.610;2023-08-24T10:15:18;30.40;99.90
25320;DHT22;13256;49.012;8.610;2023-08-24T10:17:46;30.40;99.90
25320;DHT22;13256;49.012;8.610;2023-08-24T10:21:06;30.40;99.90
25320;DHT22;13256;49.012;8.610;2023-08-24T10:23:36;30.50;99.90
25320;DHT22;13256;49.012;8.610;2023-08-24T10:26:09;30.50;99.90
25320;DHT22;13256;49.012;8.610;2023-08-24T10:28:39;30.70;99.90
25320;DHT22;13256;49.012;8.610;2023-08-24T10:31:11;30.80;99.90
25320;DHT22;13256;49.012;8.610;2023-08-24T10:33:39;30.80;99.90
25320;DHT22;13256;49.012;8.610;2023-08-24T10:36:12;30.70;99.90
25320;DHT22;13256;49.012;8.610;2023-08-24T10:38:41;30.70;99.90
25320;DHT22;13256;49.012;8.610;2023-08-24T10:41:11;30.80;99.90
25320;DHT22;13256;49.012;8.610;2023-08-24T10:43:48;30.90;99.90
25320;DHT22;13256;49.012;8.610;2023-08-24T10:46:16;30.90;99.90
25320;DHT22;13256;49.012;8.610;2023-08-24T10:51:24;31.30;99.90
25320;DHT22;13256;49.012;8.610;2023-08-24T10:54:29;31.50;99.90
25320;DHT22;13256;49.012;8.610;2023-08-24T10:56:58;31.70;99.30
25320;DHT22;13256;49.012;8.610;2023-08-24T10:59:34;31.90;98.80
25320;DHT22;13256;49.012;8.610;2023-08-24T11:02:04;32.00;99.90
25320;DHT22;13256;49.012;8.610;2023-08-24T11:04:33;32.00;99.00
25320;DHT22;13256;49.012;8.610;2023-08-24T11:07:01;32.00;99.50
25320;DHT22;13256;49.012;8.610;2023-08-24T11:09:48;32.00;98.50
25320;DHT22;13256;49.012;8.610;2023-08-24T11:12:16;32.10;98.00
25320;DHT22;13256;49.012;8.610;2023-08-24T11:14:53;32.30;98.70
25320;DHT22;13256;49.012;8.610;2023-08-24T11:17:33;32.40;98.50
25320;DHT22;13256;49.012;8.610;2023-08-24T11:20:04;32.50;97.20
25320;DHT22;13256;49.012;8.610;2023-08-24T11:22:36;32.50;98.50
25320;DHT22;13256;49.012;8.610;2023-08-24T11:25:06;32.50;97.70
25320;DHT22;13256;49.012;8.610;2023-08-24T11:27:38;32.60;98.30
25320;DHT22;13256;49.012;8.610;2023-08-24T11:30:07;32.80;96.90
25320;DHT22;13256;49.012;8.610;2023-08-24T11:32:44;33.00;97.50
25320;DHT22;13256;49.012;8.610;2023-08-24T11:35:13;33.30;96.80
25320;DHT22;13256;49.012;8.610;2023-08-24T11:37:52;33.20;96.90
25320;DHT22;13256;49.012;8.610;2023-08-24T11:40:22;33.30;97.00
25320;DHT22;13256;49.012;8.610;2023-08-24T11:42:55;33.40;96.60
25320;DHT22;13256;49.012;8.610;2023-08-24T11:45:55;33.30;95.70
25320;DHT22;13256;49.012;8.610;2023-08-24T11:48:26;33.60;95.00
25320;DHT22;13256;49.012;8.610;2023-08-24T11:50:59;33.70;94.10
25320;DHT22;13256;49.012;8.610;2023-08-24T11:53:30;33.80;94.40
25320;DHT22;13256;49.012;8.610;2023-08-24T11:56:06;34.00;94.10
25320;DHT22;13256;49.012;8.610;2023-08-24T11:58:47;34.10;94.40
25320;DHT22;13256;49.012;8.610;2023-08-24T12:01:22;34.00;93.90
25320;DHT22;13256;49.012;8.610;2023-08-24T12:04:00;33.90;93.60
25320;DHT22;13256;49.012;8.610;2023-08-24T12:06:30;33.70;94.10
25320;DHT22;13256;49.012;8.610;2023-08-24T12:09:07;33.50;93.20
25320;DHT22;13256;49.012;8.610;2023-08-24T12:11:37;33.70;93.20
25320;DHT22;13256;49.012;8.610;2023-08-24T12:14:18;33.90;93.70
25320;DHT22;13256;49.012;8.610;2023-08-24T12:16:49;34.00;94.10
25320;DHT22;13256;49.012;8.610;2023-08-24T12:19:35;33.90;93.30
25320;DHT22;13256;49.012;8.610;2023-08-24T12:22:06;33.90;93.20
25320;DHT22;13256;49.012;8.610;2023-08-24T12:24:46;33.80;93.20
25320;DHT22;13256;49.012;8.610;2023-08-24T12:27:25;34.00;93.60
25320;DHT22;13256;49.012;8.610;2023-08-24T12:29:53;34.00;93.00
25320;DHT22;13256;49.012;8.610;2023-08-24T12:32:21;34.20;93.20
25320;DHT22;13256;49.012;8.610;2023-08-24T12:34:52;34.50;93.10
25320;DHT22;13256;49.012;8.610;2023-08-24T12:37:23;34.50;93.60
25320;DHT22;13256;49.012;8.610;2023-08-24T12:39:58;34.50;92.10
25320;DHT22;13256;49.012;8.610;2023-08-24T12:42:28;34.40;93.00
25320;DHT22;13256;49.012;8.610;2023-08-24T12:45:00;34.30;92.80
25320;DHT22;13256;49.012;8.610;2023-08-24T12:47:27;34.40;92.70
25320;DHT22;13256;49.012;8.610;2023-08-24T12:49:58;34.40;92.60
25320;DHT22;13256;49.012;8.610;2023-08-24T12:52:25;34.50;92.90
25320;DHT22;13256;49.012;8.610;2023-08-24T12:58:12;34.70;92.00
25320;DHT22;13256;49.012;8.610;2023-08-24T13:00:40;34.90;91.40
25320;DHT22;13256;49.012;8.610;2023-08-24T13:03:09;34.90;91.90
25320;DHT22;13256;49.012;8.610;2023-08-24T13:05:40;34.90;92.50
25320;DHT22;13256;49.012;8.610;2023-08-24T13:08:36;35.00;91.60
25320;DHT22;13256;49.012;8.610;2023-08-24T13:11:04;35.30;91.80
25320;DHT22;13256;49.012;8.610;2023-08-24T13:13:31;35.50;91.60
25320;DHT22;13256;49.012;8.610;2023-08-24T13:16:02;35.80;91.00
25320;DHT22;13256;49.012;8.610;2023-08-24T13:18:31;36.10;90.90
25320;DHT22;13256;49.012;8.610;2023-08-24T13:20:59;36.20;90.50
25320;DHT22;13256;49.012;8.610;2023-08-24T13:23:52;36.40;90.20
25320;DHT22;13256;49.012;8.610;2023-08-24T13:26:24;36.70;90.00
25320;DHT22;13256;49.012;8.610;2023-08-24T13:32:48;36.60;90.00
25320;DHT22;13256;49.012;8.610;2023-08-24T13:35:21;36.80;88.10
25320;DHT22;13256;49.012;8.610;2023-08-24T13:41:41;37.20;88.40
25320;DHT22;13256;49.012;8.610;2023-08-24T13:48:06;37.60;88.00
25320;DHT22;13256;49.012;8.610;2023-08-24T13:51:02;37.70;87.00
25320;DHT22;13256;49.012;8.610;2023-08-24T13:53:58;37.50;83.80
25320;DHT22;13256;49.012;8.610;2023-08-24T13:56:46;37.00;86.80
25320;DHT22;13256;49.012;8.610;2023-08-24T13:59:39;36.50;86.80
25320;DHT22;13256;49.012;8.610;2023-08-24T14:02:12;36.10;86.80
25320;DHT22;13256;49.012;8.610;2023-08-24T14:04:45;35.90;88.70
25320;DHT22;13256;49.012;8.610;2023-08-24T14:07:13;35.60;89.10
25320;DHT22;13256;49.012;8.610;2023-08-24T14:09:43;35.30;90.50
25320;DHT22;13256;49.012;8.610;2023-08-24T14:12:34;35.00;90.50
25320;DHT22;13256;49.012;8.610;2023-08-24T14:15:05;34.60;91.10
25320;DHT22;13256;49.012;8.610;2023-08-24T14:17:43;34.30;92.10
25320;DHT22;13256;49.012;8.610;2023-08-24T14:20:19;34.10;92.90
25320;DHT22;13256;49.012;8.610;2023-08-24T14:22:54;33.80;93.90
25320;DHT22;13256;49.012;8.610;2023-08-24T14:29:09;33.30;93.50
25320;DHT22;13256;49.012;8.610;2023-08-24T14:31:41;32.80;95.00
25320;DHT22;13256;49.012;8.610;2023-08-24T14:34:08;32.30;96.40
25320;DHT22;13256;49.012;8.610;2023-08-24T14:46:15;29.10;99.90
25320;DHT22;13256;49.012;8.610;2023-08-24T14:48:42;28.60;99.90
25320;DHT22;13256;49.012;8.610;2023-08-24T14:54:12;28.00;99.90
25320;DHT22;13256;49.012;8.610;2023-08-24T14:56:42;27.90;99.90
25320;DHT22;13256;49.012;8.610;2023-08-24T14:59:14;28.00;99.90
25320;DHT22;13256;49.012;8.610;2023-08-24T15:01:50;27.90;99.90
25320;DHT22;13256;49.012;8.610;2023-08-24T15:04:19;27.90;99.90
25320;DHT22;13256;49.012;8.610;2023-08-24T15:06:57;27.80;99.90
25320;DHT22;13256;49.012;8.610;2023-08-24T15:16:02;27.50;99.90
25320;DHT22;13256;49.012;8.610;2023-08-24T15:18:39;27.50;99.90
25320;DHT22;13256;49.012;8.610;2023-08-24T15:21:19;27.20;99.90
25320;DHT22;13256;49.012;8.610;2023-08-24T15:23:50;27.00;99.90
25320;DHT22;13256;49.012;8.610;2023-08-24T15:26:17;27.00;99.90
25320;DHT22;13256;49.012;8.610;2023-08-24T15:29:15;26.90;99.90
25320;DHT22;13256;49.012;8.610;2023-08-24T15:32:01;26.90;99.90
25320;DHT22;13256;49.012;8.610;2023-08-24T15:34:30;26.80;99.90
25320;DHT22;13256;49.012;8.610;2023-08-24T15:37:02;26.80;99.90
25320;DHT22;13256;49.012;8.610;2023-08-24T15:39:36;26.90;99.90
25320;DHT22;13256;49.012;8.610;2023-08-24T15:42:36;27.00;99.90
25320;DHT22;13256;49.012;8.610;2023-08-24T15:45:04;27.20;99.90
25320;DHT22;13256;49.012;8.610;2023-08-24T15:47:36;27.40;99.90
25320;DHT22;13256;49.012;8.610;2023-08-24T15:50:08;27.60;99.90
25320;DHT22;13256;49.012;8.610;2023-08-24T15:52:40;27.40;99.90
25320;DHT22;13256;49.012;8.610;2023-08-24T15:55:07;27.40;99.90
25320;DHT22;13256;49.012;8.610;2023-08-24T15:57:41;27.30;99.90
25320;DHT22;13256;49.012;8.610;2023-08-24T16:00:10;27.30;99.90
25320;DHT22;13256;49.012;8.610;2023-08-24T16:02:45;27.20;99.90
25320;DHT22;13256;49.012;8.610;2023-08-24T16:05:14;27.00;99.90
25320;DHT22;13256;49.012;8.610;2023-08-24T16:07:45;26.90;99.90
25320;DHT22;13256;49.012;8.610;2023-08-24T16:10:17;26.90;99.90
25320;DHT22;13256;49.012;8.610;2023-08-24T16:13:10;26.90;99.90
25320;DHT22;13256;49.012;8.610;2023-08-24T16:15:46;27.00;99.90
25320;DHT22;13256;49.012;8.610;2023-08-24T16:18:13;27.10;99.90
25320;DHT22;13256;49.012;8.610;2023-08-24T16:20:45;27.10;99.90
25320;DHT22;13256;49.012;8.610;2023-08-24T16:23:17;27.10;99.90
25320;DHT22;13256;49.012;8.610;2023-08-24T16:25:51;27.20;99.90
25320;DHT22;13256;49.012;8.610;2023-08-24T16:28:26;27.10;99.90
25320;DHT22;13256;49.012;8.610;2023-08-24T16:30:59;27.20;99.90
25320;DHT22;13256;49.012;8.610;2023-08-24T16:33:55;27.30;99.90
25320;DHT22;13256;49.012;8.610;2023-08-24T16:36:29;27.10;99.90
25320;DHT22;13256;49.012;8.610;2023-08-24T16:39:02;27.10;99.90
25320;DHT22;13256;49.012;8.610;2023-08-24T16:41:38;27.00;99.90
25320;DHT22;13256;49.012;8.610;2023-08-24T16:44:05;27.00;99.90
25320;DHT22;13256;49.012;8.610;2023-08-24T16:47:02;27.00;99.90
25320;DHT22;13256;49.012;8.610;2023-08-24T16:49:30;26.90;99.90
25320;DHT22;13256;49.012;8.610;2023-08-24T16:52:04;26.90;99.90
25320;DHT22;13256;49.012;8.610;2023-08-24T16:54:39;26.90;99.90